createdAt,value
2022-09-03T00:00:16.456Z,99046.25
2022-09-03T00:03:12.213Z,99045.47
2022-09-03T00:06:03.476Z,99043.09
2022-09-03T00:08:40.867Z,99045.47
2022-09-03T00:11:39.645Z,99045.22
2022-09-03T00:15:02.141Z,99047.03
2022-09-03T00:17:36.140Z,99049.00
2022-09-03T00:21:08.700Z,99057.31
2022-09-03T00:23:41.651Z,99057.31
2022-09-03T00:26:14.993Z,99058.88
2022-09-03T00:28:50.383Z,99050.38
2022-09-03T00:31:27.525Z,99052.94
2022-09-03T00:34:10.893Z,99058.09
2022-09-03T00:36:44.017Z,99060.66
2022-09-03T00:39:18.901Z,99056.84
2022-09-03T00:42:25.821Z,99064.56
2022-09-03T00:45:00.933Z,99068.63
2022-09-03T00:47:59.153Z,99070.63
2022-09-03T00:51:03.356Z,99076.22
2022-09-03T00:53:57.947Z,99065.81
2022-09-03T00:56:51.315Z,99066.63
2022-09-03T00:59:48.153Z,99062.25
2022-09-03T01:02:47.806Z,99061.78
2022-09-03T01:05:28.125Z,99055.41
2022-09-03T01:08:32.337Z,99056.19
2022-09-03T01:11:26.854Z,99061.88
2022-09-03T01:14:14.524Z,99054.97
2022-09-03T01:17:10.721Z,99060.13
2022-09-03T01:20:03.521Z,99052.59
2022-09-03T01:23:00.911Z,99054.16
2022-09-03T01:25:49.609Z,99050.81
2022-09-03T01:28:45.242Z,99058.31
2022-09-03T01:32:04.347Z,99058.31
2022-09-03T01:34:37.868Z,99045.56
2022-09-03T01:37:44.669Z,99049.94
2022-09-03T01:40:33.763Z,99064.25
2022-09-03T01:43:36.682Z,99062.69
2022-09-03T01:46:14.179Z,99062.69
2022-09-03T01:49:23.913Z,99068.38
2022-09-03T01:52:16.313Z,99068.97
2022-09-03T01:55:10.040Z,99067.94
2022-09-03T01:58:33.642Z,99071.31
2022-09-03T02:01:12.231Z,99073.31
2022-09-03T02:03:44.785Z,99080.25
2022-09-03T02:06:12.954Z,99083.81
2022-09-03T02:08:42.039Z,99080.47
2022-09-03T02:14:13.982Z,99078.66
2022-09-03T02:16:43.432Z,99083.81
2022-09-03T02:19:18.097Z,99071.41
2022-09-03T02:21:54.542Z,99074.34
2022-09-03T02:24:23.756Z,99077.69
2022-09-03T02:26:51.594Z,99087.97
2022-09-03T02:29:19.689Z,99080.81
2022-09-03T02:31:47.494Z,99078.25
2022-09-03T02:34:15.277Z,99080.59
2022-09-03T02:36:48.003Z,99080.34
2022-09-03T02:39:17.085Z,99070.06
2022-09-03T02:41:45.087Z,99082.94
2022-09-03T02:44:17.505Z,99083.72
2022-09-03T02:46:53.932Z,99091.44
2022-09-03T02:49:21.875Z,99089.09
2022-09-03T02:51:49.610Z,99090.09
2022-09-03T02:54:20.869Z,99096.56
2022-09-03T02:56:49.912Z,99086.28
2022-09-03T02:59:18.142Z,99085.50
2022-09-03T03:01:46.631Z,99092.44
2022-09-03T03:04:14.985Z,99097.34
2022-09-03T03:06:42.753Z,99100.16
2022-09-03T03:09:15.420Z,99103.50
2022-09-03T03:11:43.474Z,99102.97
2022-09-03T03:14:11.208Z,99099.59
2022-09-03T03:16:39.041Z,99106.53
2022-09-03T03:19:06.884Z,99110.13
2022-09-03T03:21:34.836Z,99104.84
2022-09-03T03:24:04.001Z,99109.00
2022-09-03T03:26:32.142Z,99111.78
2022-09-03T03:29:04.745Z,99110.00
2022-09-03T03:31:33.145Z,99105.63
2022-09-03T03:34:03.246Z,99106.19
2022-09-03T03:36:33.876Z,99107.97
2022-09-03T03:39:02.134Z,99099.47
2022-09-03T03:41:33.090Z,99089.09
2022-09-03T03:44:05.023Z,99095.91
2022-09-03T03:46:41.587Z,99105.41
2022-09-03T03:49:10.418Z,99103.84
2022-09-03T03:51:38.971Z,99104.84
2022-09-03T03:54:07.163Z,99104.63
2022-09-03T03:56:35.608Z,99095.56
2022-09-03T03:59:04.559Z,99105.88
2022-09-03T04:01:32.914Z,99101.19
2022-09-03T04:04:00.856Z,99102.75
2022-09-03T04:06:29.708Z,99108.91
2022-09-03T04:08:57.420Z,99094.91
2022-09-03T04:11:26.397Z,99093.31
2022-09-03T04:13:54.571Z,99094.91
2022-09-03T04:16:27.632Z,99099.63
2022-09-03T04:18:56.925Z,99102.63
2022-09-03T04:21:28.602Z,99097.81
2022-09-03T04:23:58.301Z,99096.81
2022-09-03T04:26:31.949Z,99096.81
2022-09-03T04:29:03.616Z,99099.38
2022-09-03T04:31:32.878Z,99100.84
2022-09-03T04:34:01.265Z,99098.28
2022-09-03T04:36:32.079Z,99094.34
2022-09-03T04:39:04.270Z,99099.47
2022-09-03T04:41:32.333Z,99112.94
2022-09-03T04:44:00.414Z,99112.69
2022-09-03T04:46:33.972Z,99116.06
2022-09-03T04:49:02.815Z,99124.00
2022-09-03T04:51:31.593Z,99118.06
2022-09-03T04:54:02.223Z,99124.00
2022-09-03T04:56:35.200Z,99115.69
2022-09-03T04:59:09.423Z,99120.84
2022-09-03T05:01:40.493Z,99110.56
2022-09-03T05:04:09.030Z,99110.91
2022-09-03T05:06:38.020Z,99105.31
2022-09-03T05:09:07.039Z,99107.66
2022-09-03T05:11:34.837Z,99102.50
2022-09-03T05:14:03.063Z,99104.66
2022-09-03T05:16:31.218Z,99119.63
2022-09-03T05:19:01.395Z,99107.22
2022-09-03T05:21:30.810Z,99117.38
2022-09-03T05:24:01.598Z,99120.53
2022-09-03T05:26:39.099Z,99112.13
2022-09-03T05:29:08.228Z,99119.72
2022-09-03T05:31:39.400Z,99118.16
2022-09-03T05:34:08.415Z,99118.75
2022-09-03T05:36:38.212Z,99120.06
2022-09-03T05:39:06.927Z,99136.84
2022-09-03T05:41:35.485Z,99128.25
2022-09-03T05:44:04.210Z,99128.81
